Euro Snow — VQGH9 — position and weather

sailwx.info

Track history (hours):
 
Tides and Currents Weather Stations Pressure Air Temp Water Temp Dewpoint Dewpoint Depression Visibility Wind Speed Wind Dir Waves Ship Positions

Euro Snow

Last reported at 2016-Aug-24 21:32 UTC. Time now 2016-Aug-26 05:00 UTC.
Position N 44°41' W 004°03'.

Length 133 m; draft 7.3 m.

Type: Cargo ship. MMSI: 235613000.

Date/timePositionNaut miles runAvg speedWind from/ knotsBaromVisibWave heightAir tempDewpointWater temp
2016-Aug-24 21:32N 44°41' W 004°03'1414.1
2016-Aug-24 20:33N 44°53' W 004°13'2014.5
2016-Aug-24 19:11N 45°10' W 004°27'7215.3
2016-Aug-24 14:29N 46°14' W 005°15'1514.9
2016-Aug-24 13:26N 46°27' W 005°26'1514.5
2016-Aug-24 12:23N 46°41' W 005°36'1214.4
2016-Aug-24 11:33N 46°51' W 005°45'1514.9
2016-Aug-24 10:33N 47°04' W 005°54'1616.3
2016-Aug-24 09:33N 47°20' W 006°01'1717.4
2016-Aug-24 08:33N 47°37' W 006°02'1816.7
2016-Aug-24 07:30N 47°54' W 005°55'1516.0
2016-Aug-24 06:33N 48°09' W 005°50'3015.2
2016-Aug-24 04:34N 48°39' W 005°56'1716.5
2016-Aug-24 03:33N 48°53' W 005°43'1717.1
2016-Aug-24 02:33N 49°02' W 005°21'1817.7
2016-Aug-24 01:33N 49°11' W 004°57'1817.5
2016-Aug-24 00:33N 49°20' W 004°34'1716.5
2016-Aug-23 23:31N 49°28' W 004°11'1515.5
2016-Aug-23 22:33N 49°35' W 003°51'1514.8
2016-Aug-23 21:33N 49°43' W 003°32'1514.9
2016-Aug-23 20:33N 49°50' W 003°12'1616.2
2016-Aug-23 19:33N 49°58' W 002°49'1818.3
2016-Aug-23 18:33N 50°03' W 002°22'4520.3
2016-Aug-23 16:20N 50°16' W 001°15'1519.5
2016-Aug-23 15:33N 50°20' W 000°52'1817.7
2016-Aug-23 14:33N 50°25' W 000°25'1616.5
2016-Aug-23 13:33N 50°30' W 000°00'1515.4
2016-Aug-23 12:33N 50°34' E 000°23'2115.5
2016-Aug-23 11:12N 50°44' E 000°52'1217.9
2016-Aug-23 10:32N 50°51' E 001°08'1919.6
2016-Aug-23 09:33N 51°03' E 001°31'1919.0
2016-Aug-23 08:33N 51°18' E 001°51'1716.8
2016-Aug-23 07:33N 51°31' E 002°07'1615.7
2016-Aug-23 06:33N 51°43' E 002°24'1515.2
2016-Aug-23 05:33N 51°54' E 002°40'1514.5
2016-Aug-23 04:32N 52°02' E 003°01'1515.5
2016-Aug-23 03:33N 52°03' E 003°25'1616.2
2016-Aug-23 02:33N 52°02' E 003°51'1515.0
2016-Aug-23 01:34N 51°56' E 004°13'8 7.6
2016-Aug-23 00:30N 51°53' E 004°25'0 0.0
2016-Aug-22 23:33N 51°53' E 004°25'0 0.0
2016-Aug-22 22:33N 51°53' E 004°25'0 0.0
2016-Aug-22 21:33N 51°53' E 004°25'0 0.0
2016-Aug-22 20:33N 51°53' E 004°25'0 0.0
2016-Aug-22 19:33N 51°53' E 004°25'0 0.0
2016-Aug-22 18:30N 51°53' E 004°25'1 0.6
2016-Aug-22 17:34N 51°53' E 004°25'10 9.7
2016-Aug-22 16:34N 51°57' E 004°10'6 5.5
2016-Aug-22 15:32N 51°59' E 004°02'0 0.0
2016-Aug-22 14:32N 51°59' E 004°02'0 0.0
2016-Aug-22 13:32N 51°59' E 004°02'0 0.0
2016-Aug-22 12:29N 51°59' E 004°02'0 0.1
2016-Aug-22 11:33N 51°59' E 004°02'2 2.0
2016-Aug-22 10:30N 51°57' E 004°05'0 0.0
2016-Aug-22 09:33N 51°57' E 004°05'0 0.0
2016-Aug-22 08:33N 51°57' E 004°05'0 0.0
2016-Aug-22 07:32N 51°57' E 004°05'0 0.0
2016-Aug-22 06:32N 51°57' E 004°05'0 0.0
2016-Aug-22 05:32N 51°57' E 004°05'0 0.0
2016-Aug-22 04:33N 51°57' E 004°05'0 0.0
2016-Aug-22 03:33N 51°57' E 004°05'0 0.0
2016-Aug-22 02:33N 51°57' E 004°05'0 0.0
2016-Aug-22 01:33N 51°57' E 004°05'0 0.0
2016-Aug-22 00:33N 51°57' E 004°05'1 0.6
2016-Aug-21 23:34N 51°57' E 004°04'0 0.1
2016-Aug-21 22:31N 51°57' E 004°04'0 0.0
2016-Aug-21 21:31N 51°57' E 004°04'0 0.0
2016-Aug-21 20:31N 51°57' E 004°04'0 0.0
2016-Aug-21 19:31N 51°57' E 004°04'0 0.0
2016-Aug-21 18:33N 51°57' E 004°04'0 0.0
2016-Aug-21 17:32N 51°57' E 004°04'0 0.0
2016-Aug-21 16:33N 51°57' E 004°04'0 0.0
2016-Aug-21 15:33N 51°57' E 004°04'0 0.0
2016-Aug-21 14:33N 51°57' E 004°04'0 0.0
2016-Aug-21 13:33N 51°57' E 004°04'0 0.0
2016-Aug-21 12:32N 51°57' E 004°04'0 0.0
2016-Aug-21 11:32N 51°57' E 004°04'0 0.0
2016-Aug-21 10:33N 51°57' E 004°04'3 3.2
2016-Aug-21 09:34N 51°60' E 004°01'9 8.5
2016-Aug-21 08:33N 51°55' E 003°49'0 0.1
2016-Aug-21 07:33N 51°55' E 003°49'0 0.1
2016-Aug-21 06:30N 51°56' E 003°49'0 0.0
2016-Aug-21 05:33N 51°56' E 003°49'0 0.0
2016-Aug-21 04:33N 51°56' E 003°49'0 0.0
2016-Aug-21 03:33N 51°56' E 003°49'0 0.0
2016-Aug-21 02:33N 51°56' E 003°49'0 0.0
2016-Aug-21 01:33N 51°56' E 003°49'0 0.0
2016-Aug-21 00:30N 51°56' E 003°49'0 0.0
2016-Aug-20 23:33N 51°56' E 003°49'0 0.0
2016-Aug-20 22:33N 51°56' E 003°49'0 0.0
2016-Aug-20 21:30N 51°56' E 003°49'0 0.0
2016-Aug-20 20:30N 51°56' E 003°49'0 0.0
2016-Aug-20 19:30N 51°56' E 003°49'0 0.0
2016-Aug-20 18:27N 51°56' E 003°49'0 0.0
2016-Aug-20 17:33N 51°56' E 003°49'0 0.0
2016-Aug-20 16:33N 51°56' E 003°49'1 1.3
2016-Aug-20 15:34N 51°57' E 003°49'5317.4
2016-Aug-20 12:29N 51°38' E 002°28'1617.5
2016-Aug-20 11:34N 51°25' E 002°12'1616.1
2016-Aug-20 10:34N 51°12' E 001°57'1515.3
2016-Aug-20 09:34N 51°02' E 001°39'6014.6
2016-Aug-20 05:25N 50°24' E 000°25'1315.6
2016-Aug-20 04:33N 50°20' E 000°05'1515.4
2016-Aug-20 03:33N 50°16' W 000°19'9016.3
2016-Aug-19 22:04N 49°53' W 002°34'1018.5
2016-Aug-19 21:33N 49°51' W 002°48'1918.7
2016-Aug-19 20:33N 49°42' W 003°14'9618.8
2016-Aug-19 15:27N 48°53' W 005°20'4515.4
2016-Aug-19 12:34N 48°09' W 005°30'  
2016-Aug-17 07:34N 44°47' W 003°49'1513.7
2016-Aug-17 06:28N 45°01' W 003°56'1213.8
2016-Aug-17 05:34N 45°13' W 004°02'1413.6
2016-Aug-17 04:33N 45°26' W 004°10'1413.6
2016-Aug-17 03:33N 45°38' W 004°17'1313.0
2016-Aug-17 02:33N 45°51' W 004°23'1313.4
2016-Aug-17 01:33N 46°03' W 004°30'1313.3
2016-Aug-17 00:33N 46°16' W 004°36'1413.7
2016-Aug-16 23:33N 46°29' W 004°44'1414.0
2016-Aug-16 22:33N 46°42' W 004°51'1413.4
2016-Aug-16 21:33N 46°54' W 004°58'1313.6
2016-Aug-16 20:33N 47°07' W 005°05'1414.0
2016-Aug-16 19:33N 47°20' W 005°12'1414.3
2016-Aug-16 18:34N 47°33' W 005°20'1514.5
2016-Aug-16 17:33N 47°47' W 005°27'1514.5
2016-Aug-16 16:33N 48°00' W 005°35'1414.1
2016-Aug-16 15:33N 48°14' W 005°42'1313.4
2016-Aug-16 14:33N 48°26' W 005°49'1413.0
2016-Aug-16 13:31N 48°39' W 005°56'1212.7
2016-Aug-16 12:34N 48°50' W 005°48'1313.1
2016-Aug-16 11:34N 48°58' W 005°32'1414.0
2016-Aug-16 10:33N 49°05' W 005°13'1514.9
2016-Aug-16 09:33N 49°12' W 004°54'1515.2
2016-Aug-16 08:33N 49°20' W 004°33'1514.9
2016-Aug-16 07:33N 49°27' W 004°14'4113.6
2016-Aug-16 04:33N 49°48' W 003°19'1313.1
2016-Aug-16 03:34N 49°55' W 003°02'1413.8
2016-Aug-16 02:33N 49°60' W 002°42'1514.9
2016-Aug-16 01:34N 50°04' W 002°20'1616.3
2016-Aug-16 00:33N 50°08' W 001°55'1716.8
2016-Aug-15 23:33N 50°13' W 001°30'1616.4
2016-Aug-15 22:33N 50°17' W 001°05'1515.0
2016-Aug-15 21:33N 50°22' W 000°43'1413.9
2016-Aug-15 20:33N 50°26' W 000°22'1313.1
2016-Aug-15 19:33N 50°29' W 000°02'1312.7
2016-Aug-15 18:33N 50°33' E 000°17'2913.8
2016-Aug-15 16:27N 50°46' E 000°58'1415.7
2016-Aug-15 15:34N 50°53' E 001°17'1615.9
2016-Aug-15 14:33N 51°05' E 001°34'1514.6
2016-Aug-15 13:33N 51°16' E 001°49'1313.4
2016-Aug-15 12:33N 51°27' E 002°01'1312.9
2016-Aug-15 11:33N 51°37' E 002°15'5914.8
2016-Aug-15 07:33N 52°03' E 003°41'1716.7
2016-Aug-15 06:33N 51°58' E 004°08'12 5.9
2016-Aug-15 04:31N 51°53' E 004°25'0 0.0
2016-Aug-15 03:32N 51°53' E 004°25'0 0.0
2016-Aug-15 02:31N 51°53' E 004°25'0 0.0
2016-Aug-15 01:31N 51°53' E 004°25'0 0.0
2016-Aug-15 00:31N 51°53' E 004°25'0 0.0
2016-Aug-14 23:31N 51°53' E 004°25'0 0.0
2016-Aug-14 22:31N 51°53' E 004°25'  
Track history (hours):
 
Tides and Currents Weather Stations Pressure Air Temp Water Temp Dewpoint Dewpoint Depression Visibility Wind Speed Wind Dir Waves Ship Positions

Euro Snow

Last reported at 2016-Aug-24 21:32 UTC. Time now 2016-Aug-26 05:00 UTC.
Position N 44°41' W 004°03'.

Length 133 m; draft 7.3 m.

Type: Cargo ship. MMSI: 235613000.

Date/timePositionNaut miles runAvg speedWind from/ knotsBaromVisibWave heightAir tempDewpointWater temp
2016-Aug-24 21:32N 44°41' W 004°03'1414.1
2016-Aug-24 20:33N 44°53' W 004°13'2014.5
2016-Aug-24 19:11N 45°10' W 004°27'7215.3
2016-Aug-24 14:29N 46°14' W 005°15'1514.9
2016-Aug-24 13:26N 46°27' W 005°26'1514.5
2016-Aug-24 12:23N 46°41' W 005°36'1214.4
2016-Aug-24 11:33N 46°51' W 005°45'1514.9
2016-Aug-24 10:33N 47°04' W 005°54'1616.3
2016-Aug-24 09:33N 47°20' W 006°01'1717.4
2016-Aug-24 08:33N 47°37' W 006°02'1816.7
2016-Aug-24 07:30N 47°54' W 005°55'1516.0
2016-Aug-24 06:33N 48°09' W 005°50'3015.2
2016-Aug-24 04:34N 48°39' W 005°56'1716.5
2016-Aug-24 03:33N 48°53' W 005°43'1717.1
2016-Aug-24 02:33N 49°02' W 005°21'1817.7
2016-Aug-24 01:33N 49°11' W 004°57'1817.5
2016-Aug-24 00:33N 49°20' W 004°34'1716.5
2016-Aug-23 23:31N 49°28' W 004°11'1515.5
2016-Aug-23 22:33N 49°35' W 003°51'1514.8
2016-Aug-23 21:33N 49°43' W 003°32'1514.9
2016-Aug-23 20:33N 49°50' W 003°12'1616.2
2016-Aug-23 19:33N 49°58' W 002°49'1818.3
2016-Aug-23 18:33N 50°03' W 002°22'4520.3
2016-Aug-23 16:20N 50°16' W 001°15'1519.5
2016-Aug-23 15:33N 50°20' W 000°52'1817.7
2016-Aug-23 14:33N 50°25' W 000°25'1616.5
2016-Aug-23 13:33N 50°30' W 000°00'1515.4
2016-Aug-23 12:33N 50°34' E 000°23'2115.5
2016-Aug-23 11:12N 50°44' E 000°52'1217.9
2016-Aug-23 10:32N 50°51' E 001°08'1919.6
2016-Aug-23 09:33N 51°03' E 001°31'1919.0
2016-Aug-23 08:33N 51°18' E 001°51'1716.8
2016-Aug-23 07:33N 51°31' E 002°07'1615.7
2016-Aug-23 06:33N 51°43' E 002°24'1515.2
2016-Aug-23 05:33N 51°54' E 002°40'1514.5
2016-Aug-23 04:32N 52°02' E 003°01'1515.5
2016-Aug-23 03:33N 52°03' E 003°25'1616.2
2016-Aug-23 02:33N 52°02' E 003°51'1515.0
2016-Aug-23 01:34N 51°56' E 004°13'8 7.6
2016-Aug-23 00:30N 51°53' E 004°25'0 0.0
2016-Aug-22 23:33N 51°53' E 004°25'0 0.0
2016-Aug-22 22:33N 51°53' E 004°25'0 0.0
2016-Aug-22 21:33N 51°53' E 004°25'0 0.0
2016-Aug-22 20:33N 51°53' E 004°25'0 0.0
2016-Aug-22 19:33N 51°53' E 004°25'0 0.0
2016-Aug-22 18:30N 51°53' E 004°25'1 0.6
2016-Aug-22 17:34N 51°53' E 004°25'10 9.7
2016-Aug-22 16:34N 51°57' E 004°10'6 5.5
2016-Aug-22 15:32N 51°59' E 004°02'0 0.0
2016-Aug-22 14:32N 51°59' E 004°02'0 0.0
2016-Aug-22 13:32N 51°59' E 004°02'0 0.0
2016-Aug-22 12:29N 51°59' E 004°02'0 0.1
2016-Aug-22 11:33N 51°59' E 004°02'2 2.0
2016-Aug-22 10:30N 51°57' E 004°05'0 0.0
2016-Aug-22 09:33N 51°57' E 004°05'0 0.0
2016-Aug-22 08:33N 51°57' E 004°05'0 0.0
2016-Aug-22 07:32N 51°57' E 004°05'0 0.0
2016-Aug-22 06:32N 51°57' E 004°05'0 0.0
2016-Aug-22 05:32N 51°57' E 004°05'0 0.0
2016-Aug-22 04:33N 51°57' E 004°05'0 0.0
2016-Aug-22 03:33N 51°57' E 004°05'0 0.0
2016-Aug-22 02:33N 51°57' E 004°05'0 0.0
2016-Aug-22 01:33N 51°57' E 004°05'0 0.0
2016-Aug-22 00:33N 51°57' E 004°05'1 0.6
2016-Aug-21 23:34N 51°57' E 004°04'0 0.1
2016-Aug-21 22:31N 51°57' E 004°04'0 0.0
2016-Aug-21 21:31N 51°57' E 004°04'0 0.0
2016-Aug-21 20:31N 51°57' E 004°04'0 0.0
2016-Aug-21 19:31N 51°57' E 004°04'0 0.0
2016-Aug-21 18:33N 51°57' E 004°04'0 0.0
2016-Aug-21 17:32N 51°57' E 004°04'0 0.0
2016-Aug-21 16:33N 51°57' E 004°04'0 0.0
2016-Aug-21 15:33N 51°57' E 004°04'0 0.0
2016-Aug-21 14:33N 51°57' E 004°04'0 0.0
2016-Aug-21 13:33N 51°57' E 004°04'0 0.0
2016-Aug-21 12:32N 51°57' E 004°04'0 0.0
2016-Aug-21 11:32N 51°57' E 004°04'0 0.0
2016-Aug-21 10:33N 51°57' E 004°04'3 3.2
2016-Aug-21 09:34N 51°60' E 004°01'9 8.5
2016-Aug-21 08:33N 51°55' E 003°49'0 0.1
2016-Aug-21 07:33N 51°55' E 003°49'0 0.1
2016-Aug-21 06:30N 51°56' E 003°49'0 0.0
2016-Aug-21 05:33N 51°56' E 003°49'0 0.0
2016-Aug-21 04:33N 51°56' E 003°49'0 0.0
2016-Aug-21 03:33N 51°56' E 003°49'0 0.0
2016-Aug-21 02:33N 51°56' E 003°49'0 0.0
2016-Aug-21 01:33N 51°56' E 003°49'0 0.0
2016-Aug-21 00:30N 51°56' E 003°49'0 0.0
2016-Aug-20 23:33N 51°56' E 003°49'0 0.0
2016-Aug-20 22:33N 51°56' E 003°49'0 0.0
2016-Aug-20 21:30N 51°56' E 003°49'0 0.0
2016-Aug-20 20:30N 51°56' E 003°49'0 0.0
2016-Aug-20 19:30N 51°56' E 003°49'0 0.0
2016-Aug-20 18:27N 51°56' E 003°49'0 0.0
2016-Aug-20 17:33N 51°56' E 003°49'0 0.0
2016-Aug-20 16:33N 51°56' E 003°49'1 1.3
2016-Aug-20 15:34N 51°57' E 003°49'5317.4
2016-Aug-20 12:29N 51°38' E 002°28'1617.5
2016-Aug-20 11:34N 51°25' E 002°12'1616.1
2016-Aug-20 10:34N 51°12' E 001°57'1515.3
2016-Aug-20 09:34N 51°02' E 001°39'6014.6
2016-Aug-20 05:25N 50°24' E 000°25'1315.6
2016-Aug-20 04:33N 50°20' E 000°05'1515.4
2016-Aug-20 03:33N 50°16' W 000°19'9016.3
2016-Aug-19 22:04N 49°53' W 002°34'1018.5
2016-Aug-19 21:33N 49°51' W 002°48'1918.7
2016-Aug-19 20:33N 49°42' W 003°14'9618.8
2016-Aug-19 15:27N 48°53' W 005°20'4515.4
2016-Aug-19 12:34N 48°09' W 005°30'  
2016-Aug-17 07:34N 44°47' W 003°49'1513.7
2016-Aug-17 06:28N 45°01' W 003°56'1213.8
2016-Aug-17 05:34N 45°13' W 004°02'1413.6
2016-Aug-17 04:33N 45°26' W 004°10'1413.6
2016-Aug-17 03:33N 45°38' W 004°17'1313.0
2016-Aug-17 02:33N 45°51' W 004°23'1313.4
2016-Aug-17 01:33N 46°03' W 004°30'1313.3
2016-Aug-17 00:33N 46°16' W 004°36'1413.7
2016-Aug-16 23:33N 46°29' W 004°44'1414.0
2016-Aug-16 22:33N 46°42' W 004°51'1413.4
2016-Aug-16 21:33N 46°54' W 004°58'1313.6
2016-Aug-16 20:33N 47°07' W 005°05'1414.0
2016-Aug-16 19:33N 47°20' W 005°12'1414.3
2016-Aug-16 18:34N 47°33' W 005°20'1514.5
2016-Aug-16 17:33N 47°47' W 005°27'1514.5
2016-Aug-16 16:33N 48°00' W 005°35'1414.1
2016-Aug-16 15:33N 48°14' W 005°42'1313.4
2016-Aug-16 14:33N 48°26' W 005°49'1413.0
2016-Aug-16 13:31N 48°39' W 005°56'1212.7
2016-Aug-16 12:34N 48°50' W 005°48'1313.1
2016-Aug-16 11:34N 48°58' W 005°32'1414.0
2016-Aug-16 10:33N 49°05' W 005°13'1514.9
2016-Aug-16 09:33N 49°12' W 004°54'1515.2
2016-Aug-16 08:33N 49°20' W 004°33'1514.9
2016-Aug-16 07:33N 49°27' W 004°14'4113.6
2016-Aug-16 04:33N 49°48' W 003°19'1313.1
2016-Aug-16 03:34N 49°55' W 003°02'1413.8
2016-Aug-16 02:33N 49°60' W 002°42'1514.9
2016-Aug-16 01:34N 50°04' W 002°20'1616.3
2016-Aug-16 00:33N 50°08' W 001°55'1716.8
2016-Aug-15 23:33N 50°13' W 001°30'1616.4
2016-Aug-15 22:33N 50°17' W 001°05'1515.0
2016-Aug-15 21:33N 50°22' W 000°43'1413.9
2016-Aug-15 20:33N 50°26' W 000°22'1313.1
2016-Aug-15 19:33N 50°29' W 000°02'1312.7
2016-Aug-15 18:33N 50°33' E 000°17'2913.8
2016-Aug-15 16:27N 50°46' E 000°58'1415.7
2016-Aug-15 15:34N 50°53' E 001°17'1615.9
2016-Aug-15 14:33N 51°05' E 001°34'1514.6
2016-Aug-15 13:33N 51°16' E 001°49'1313.4
2016-Aug-15 12:33N 51°27' E 002°01'1312.9
2016-Aug-15 11:33N 51°37' E 002°15'5914.8
2016-Aug-15 07:33N 52°03' E 003°41'1716.7
2016-Aug-15 06:33N 51°58' E 004°08'12 5.9
2016-Aug-15 04:31N 51°53' E 004°25'0 0.0
2016-Aug-15 03:32N 51°53' E 004°25'0 0.0
2016-Aug-15 02:31N 51°53' E 004°25'0 0.0
2016-Aug-15 01:31N 51°53' E 004°25'0 0.0
2016-Aug-15 00:31N 51°53' E 004°25'0 0.0
2016-Aug-14 23:31N 51°53' E 004°25'0 0.0
2016-Aug-14 22:31N 51°53' E 004°25'  

Dump ship's entire track history